Time;durP1;ratioP1;P1;durP2;ratioP2;P2;SDS_P1;SDS_P2;PMS_P1;PMS_P2;Temp;Humidity;BMP_temperature;BMP_pressure;BME280_temperature;BME280_humidity;BME280_pressure;Samples;Min_cycle;Max_cycle;Signal;HPM_P1;HPM_P2
2022/08/01 00:00:18;;;;;;;;;14.20;11.40;;;;;20.07;69.65;99839.06;5117064;28;8986;-63
2022/08/01 00:02:46;;;;;;;;;21.20;15.40;;;;;20.07;69.42;99840.91;5117376;28;8824;-62
2022/08/01 00:05:14;;;;;;;;;20.00;15.40;;;;;20.03;70.00;99832.31;5117010;28;8828;-63
2022/08/01 00:07:43;;;;;;;;;19.40;18.40;;;;;20.01;69.46;99838.94;5117444;28;8859;-62
2022/08/01 00:10:11;;;;;;;;;19.00;16.80;;;;;19.99;69.99;99831.00;5117117;28;8904;-63
2022/08/01 00:12:38;;;;;;;;;14.40;14.00;;;;;19.97;69.77;99834.91;5117045;28;8840;-64
2022/08/01 00:15:06;;;;;;;;;22.00;18.20;;;;;19.94;70.39;99832.59;5119007;27;8958;-62
2022/08/01 00:17:35;;;;;;;;;13.00;11.40;;;;;19.92;69.92;99830.06;5136949;27;8956;-63
2022/08/01 00:20:03;;;;;;;;;16.80;14.80;;;;;19.91;69.74;99832.94;5137103;27;8842;-63
2022/08/01 00:22:31;;;;;;;;;20.40;15.80;;;;;19.90;70.15;99832.13;5137242;27;8971;-62
2022/08/01 00:24:58;;;;;;;;;22.20;19.60;;;;;19.88;70.11;99827.91;5137426;27;8972;-62
2022/08/01 00:27:26;;;;;;;;;18.80;16.00;;;;;19.86;69.83;99830.78;5134697;27;8837;-62
2022/08/01 00:29:54;;;;;;;;;23.00;20.00;;;;;19.84;70.31;99826.59;5115482;28;8848;-62
2022/08/01 00:32:40;;;;;;;;;19.40;18.60;;;;;19.80;70.71;99828.00;5114243;28;8808;-62
2022/08/01 00:35:08;;;;;;;;;20.20;16.00;;;;;19.77;70.83;99828.34;5096603;28;8990;-62
2022/08/01 00:37:36;;;;;;;;;12.80;12.80;;;;;19.75;70.91;99827.69;5096196;28;8818;-63
2022/08/01 00:40:04;;;;;;;;;16.00;14.00;;;;;19.73;70.66;99830.56;5096144;28;8980;-63
2022/08/01 00:42:31;;;;;;;;;17.80;12.80;;;;;19.73;70.43;99833.25;5096119;28;8842;-63
2022/08/01 00:44:59;;;;;;;;;17.60;17.00;;;;;19.71;70.51;99829.91;5096264;28;8973;-62
2022/08/01 00:47:27;;;;;;;;;13.00;11.40;;;;;19.71;70.98;99829.91;5096184;28;8911;-63
2022/08/01 00:49:55;;;;;;;;;15.80;12.60;;;;;19.70;71.04;99825.53;5096126;28;8846;-63
2022/08/01 00:52:22;;;;;;;;;11.00;10.00;;;;;19.71;70.91;99827.22;5095850;28;8834;-62
2022/08/01 00:54:50;;;;;;;;;12.60;11.00;;;;;19.70;70.96;99828.25;5095748;28;8833;-63
2022/08/01 00:57:18;;;;;;;;;13.40;11.40;;;;;19.71;70.61;99821.00;5095906;28;8841;-62
2022/08/01 01:00:06;;;;;;;;;16.00;11.20;;;;;19.70;70.61;99820.13;5095757;28;8858;-63
2022/08/01 01:02:34;;;;;;;;;16.60;13.20;;;;;19.69;70.48;99823.88;5096028;28;8846;-63
2022/08/01 01:05:02;;;;;;;;;14.60;12.80;;;;;19.69;70.50;99821.16;5095948;28;8857;-62
2022/08/01 01:07:30;;;;;;;;;12.20;10.00;;;;;19.70;70.95;99822.84;5096088;28;8969;-63
2022/08/01 01:09:58;;;;;;;;;14.00;11.80;;;;;19.69;70.91;99820.31;5095727;28;8960;-62
2022/08/01 01:12:25;;;;;;;;;10.80;9.40;;;;;19.68;71.05;99832.13;5095900;28;8939;-63
2022/08/01 01:14:53;;;;;;;;;10.00;9.20;;;;;19.68;70.93;99826.75;5096281;28;8845;-63
2022/08/01 01:17:21;;;;;;;;;12.00;11.20;;;;;19.69;71.08;99829.25;5095497;28;8865;-63
2022/08/01 01:20:09;;;;;;;;;10.20;10.00;;;;;19.68;70.84;99824.03;5095640;28;8830;-63
2022/08/01 01:22:37;;;;;;;;;9.20;9.20;;;;;19.67;71.42;99817.81;5095372;28;9570;-62
2022/08/01 01:25:06;;;;;;;;;14.60;14.00;;;;;19.67;70.82;99825.91;5095984;28;8960;-62
2022/08/01 01:27:34;;;;;;;;;12.60;10.60;;;;;19.68;71.25;99824.88;5097530;28;8857;-62
2022/08/01 01:30:02;;;;;;;;;9.00;9.00;;;;;19.71;71.13;99816.41;5113189;28;8847;-62
2022/08/01 01:32:33;;;;;;;;;16.80;15.20;;;;;19.74;71.25;99824.16;5116739;27;8946;-63
2022/08/01 01:35:00;;;;;;;;;13.00;11.00;;;;;19.76;70.67;99821.25;5136314;27;8842;-63
2022/08/01 01:37:29;;;;;;;;;14.80;12.60;;;;;19.77;70.96;99831.91;5136958;27;8842;-63
2022/08/01 01:39:57;;;;;;;;;13.80;13.00;;;;;19.81;71.06;99829.66;5136416;27;8840;-63
2022/08/01 01:42:25;;;;;;;;;15.20;14.20;;;;;19.82;70.93;99824.09;5140351;27;8948;-63
2022/08/01 01:44:52;;;;;;;;;15.60;13.60;;;;;19.83;71.13;99816.81;5140236;27;8984;-62
2022/08/01 01:47:20;;;;;;;;;10.00;8.80;;;;;19.85;70.87;99823.72;5140414;27;8940;-63
2022/08/01 01:49:48;;;;;;;;;14.00;11.00;;;;;19.86;71.03;99828.09;5140374;27;8972;-63
2022/08/01 01:52:16;;;;;;;;;21.40;15.20;;;;;19.86;70.97;99830.78;5140995;27;8837;-63
2022/08/01 01:54:43;;;;;;;;;16.80;13.00;;;;;19.87;71.16;99831.63;5140363;27;8830;-63
2022/08/01 01:57:12;;;;;;;;;17.40;15.40;;;;;19.84;70.96;99832.84;5140531;27;8952;-63
2022/08/01 01:59:39;;;;;;;;;12.80;10.00;;;;;19.83;71.08;99838.41;5127682;27;8963;-63
2022/08/01 02:02:07;;;;;;;;;18.80;15.40;;;;;19.82;71.17;99837.59;5119340;28;8831;-63
2022/08/01 02:04:36;;;;;;;;;12.60;12.60;;;;;19.82;71.01;99837.59;5119227;28;9497;-68
2022/08/01 02:07:04;;;;;;;;;15.40;15.40;;;;;19.83;71.14;99828.47;5119333;28;8838;-63
2022/08/01 02:09:31;;;;;;;;;23.80;21.20;;;;;19.83;70.86;99827.59;5119441;28;9615;-63
2022/08/01 02:11:59;;;;;;;;;16.20;13.60;;;;;19.84;70.89;99829.28;5119399;28;8839;-63
2022/08/01 02:14:35;;;;;;;;;23.20;19.60;;;;;19.84;70.69;99824.72;5120049;27;8973;-63
2022/08/01 02:17:04;;;;;;;;;22.60;21.60;;;;;19.85;70.79;99825.56;5118934;28;8925;-65
2022/08/01 02:19:32;;;;;;;;;18.00;14.40;;;;;19.87;70.94;99834.34;5119378;28;8890;-63
2022/08/01 02:22:04;;;;;;;;;28.80;22.80;;;;;19.87;71.10;99827.06;5118344;28;8850;-64
2022/08/01 02:24:32;;;;;;;;;30.20;24.60;;;;;19.87;70.73;99827.06;5118911;28;8874;-63
2022/08/01 02:27:01;;;;;;;;;29.80;25.00;;;;;19.87;71.47;99834.34;5118826;28;8824;-64
2022/08/01 02:29:29;;;;;;;;;22.80;21.00;;;;;19.86;71.03;99833.50;5128785;27;8830;-63
2022/08/01 02:31:57;;;;;;;;;26.20;23.40;;;;;19.86;71.49;99829.97;5139547;27;8818;-63
2022/08/01 02:34:25;;;;;;;;;20.00;16.60;;;;;19.86;71.46;99830.78;5139513;27;8930;-64
2022/08/01 02:36:54;;;;;;;;;23.60;21.80;;;;;19.86;70.94;99830.78;5138417;27;8876;-64
2022/08/01 02:39:22;;;;;;;;;23.00;20.60;;;;;19.85;70.77;99822.84;5139204;27;8813;-63
2022/08/01 02:41:49;;;;;;;;;16.20;13.40;;;;;19.84;71.31;99827.44;5139593;27;9483;-63
2022/08/01 02:44:18;;;;;;;;;19.40;17.20;;;;;19.85;71.39;99830.97;5139586;27;8822;-63
2022/08/01 02:46:47;;;;;;;;;24.60;20.40;;;;;19.85;70.78;99825.56;5139441;27;8880;-63
2022/08/01 02:49:15;;;;;;;;;18.80;17.60;;;;;19.86;71.26;99832.66;5139560;27;8898;-62
2022/08/01 02:51:43;;;;;;;;;20.60;19.00;;;;;19.86;71.47;99833.50;5120651;27;8826;-64
2022/08/01 02:54:11;;;;;;;;;20.20;15.20;;;;;19.85;71.40;99834.53;5138601;27;8955;-63
2022/08/01 02:56:40;;;;;;;;;22.80;21.40;;;;;19.86;70.95;99841.59;5139034;27;8838;-62
2022/08/01 02:59:08;;;;;;;;;21.00;19.40;;;;;19.86;71.35;99836.19;5131644;27;8954;-63
2022/08/01 03:01:39;;;;;;;;;19.60;18.80;;;;;19.87;71.48;99832.47;5118485;28;8893;-62
2022/08/01 03:04:08;;;;;;;;;21.20;18.00;;;;;19.89;71.27;99838.53;5118391;28;8843;-63
2022/08/01 03:06:36;;;;;;;;;25.40;20.60;;;;;19.87;71.30;99840.56;5118616;28;9602;-63
2022/08/01 03:09:05;;;;;;;;;21.80;14.40;;;;;19.83;71.62;99843.81;5118377;28;8839;-63
2022/08/01 03:11:32;;;;;;;;;24.20;21.60;;;;;19.79;71.73;99837.94;5118589;28;9024;-63
2022/08/01 03:14:00;;;;;;;;;23.20;18.20;;;;;19.76;71.09;99841.03;5118261;28;9497;-63
2022/08/01 03:16:28;;;;;;;;;28.80;22.60;;;;;19.75;71.66;99839.34;5118191;28;8843;-66
2022/08/01 03:18:56;;;;;;;;;26.60;23.40;;;;;19.75;71.72;99838.50;5118245;28;8820;-62
2022/08/01 03:21:24;;;;;;;;;23.60;21.00;;;;;19.74;71.55;99832.28;5118247;28;8851;-63
2022/08/01 03:23:56;;;;;;;;;22.20;19.60;;;;;19.75;71.66;99833.09;5117744;28;8855;-63
2022/08/01 03:26:25;;;;;;;;;25.20;25.00;;;;;19.76;71.36;99829.38;5118046;28;8836;-63
2022/08/01 03:28:52;;;;;;;;;29.00;26.00;;;;;19.76;71.65;99829.38;5121990;27;8864;-63
2022/08/01 03:31:20;;;;;;;;;25.80;21.60;;;;;19.75;71.17;99827.69;5138483;27;8841;-63
2022/08/01 03:33:48;;;;;;;;;28.40;25.60;;;;;19.70;71.79;99836.34;5138059;27;8857;-62
2022/08/01 03:36:16;;;;;;;;;23.00;22.00;;;;;19.67;71.79;99839.44;5138263;27;8946;-62
2022/08/01 03:38:44;;;;;;;;;19.60;16.60;;;;;19.65;71.85;99846.03;5138280;27;8898;-64
2022/08/01 03:41:12;;;;;;;;;32.00;30.50;;;;;19.63;71.88;99850.75;5137833;27;8836;-62
2022/08/01 03:43:41;;;;;;;;;28.20;26.00;;;;;19.57;72.58;99846.91;5138306;27;8829;-62
2022/08/01 03:46:09;;;;;;;;;33.40;30.00;;;;;19.52;72.44;99851.19;5137795;27;8833;-62
2022/08/01 03:48:39;;;;;;;;;21.60;20.20;;;;;19.50;72.64;99845.97;5137973;27;8837;-63
2022/08/01 03:51:07;;;;;;;;;29.40;23.40;;;;;19.47;72.31;99843.63;5137703;27;8829;-62
2022/08/01 03:53:35;;;;;;;;;18.80;16.40;;;;;19.44;72.16;99846.72;5138053;27;8976;-62
2022/08/01 03:56:08;;;;;;;;;21.40;19.20;;;;;19.44;72.18;99846.72;5121098;27;8811;-62
2022/08/01 03:58:36;;;;;;;;;19.20;16.80;;;;;19.43;72.46;99855.81;5117376;28;8816;-62
2022/08/01 04:01:03;;;;;;;;;14.20;13.00;;;;;19.40;72.48;99849.94;5117230;28;8875;-64
2022/08/01 04:03:31;;;;;;;;;15.60;13.60;;;;;19.37;72.38;99843.06;5116434;28;8870;-64
2022/08/01 04:06:10;;;;;;;;;16.20;14.40;;;;;19.34;72.81;99847.97;5116939;28;8816;-62
2022/08/01 04:08:38;;;;;;;;;15.40;12.60;;;;;19.31;72.60;99851.00;5116771;28;8828;-63
2022/08/01 04:11:07;;;;;;;;;10.20;9.60;;;;;19.28;72.59;99854.91;5117385;28;8902;-62
2022/08/01 04:13:35;;;;;;;;;9.00;7.00;;;;;19.25;72.94;99851.72;5117315;28;8977;-64
2022/08/01 04:16:04;;;;;;;;;12.60;10.00;;;;;19.24;72.95;99860.84;5116850;28;8846;-63
2022/08/01 04:18:33;;;;;;;;;11.20;9.40;;;;;19.23;72.79;99860.03;5117035;28;8843;-63
2022/08/01 04:21:00;;;;;;;;;12.00;11.20;;;;;19.24;73.37;99852.75;5116475;28;8827;-62
2022/08/01 04:23:28;;;;;;;;;9.20;9.20;;;;;19.24;73.05;99856.31;5116411;28;8848;-63
2022/08/01 04:25:56;;;;;;;;;11.40;9.60;;;;;19.26;72.87;99867.75;5130592;27;8798;-63
2022/08/01 04:28:24;;;;;;;;;13.20;11.60;;;;;19.27;72.48;99866.72;5137294;27;8925;-62
2022/08/01 04:30:52;;;;;;;;;10.60;10.60;;;;;19.29;72.51;99870.13;5136800;27;8861;-62
2022/08/01 04:33:19;;;;;;;;;12.80;11.40;;;;;19.31;72.49;99872.63;5136464;27;8816;-62
2022/08/01 04:35:47;;;;;;;;;19.20;16.80;;;;;19.34;72.52;99873.09;5136444;27;8818;-62
2022/08/01 04:38:31;;;;;;;;;14.60;12.40;;;;;19.37;72.12;99872.75;5136011;27;8844;-62
2022/08/01 04:40:59;;;;;;;;;8.40;6.20;;;;;19.39;72.68;99870.72;5136398;27;8825;-62
2022/08/01 04:43:35;;;;;;;;;15.00;13.20;;;;;19.44;72.53;99878.28;5136047;27;8875;-62
2022/08/01 04:46:04;;;;;;;;;15.80;12.20;;;;;19.47;72.67;99884.16;5135581;27;8844;-64
2022/08/01 04:48:32;;;;;;;;;15.80;15.40;;;;;19.50;72.46;99872.16;5135827;27;8817;-62
2022/08/01 04:51:00;;;;;;;;;10.40;8.80;;;;;19.53;72.11;99880.75;5136244;27;8860;-62
2022/08/01 04:53:27;;;;;;;;;17.20;16.20;;;;;19.56;72.41;99885.78;5136389;27;8960;-62
2022/08/01 04:55:56;;;;;;;;;15.80;12.80;;;;;19.60;72.19;99880.84;5121837;27;9638;-62
2022/08/01 04:58:24;;;;;;;;;21.60;15.60;;;;;19.62;71.98;99882.34;5115726;28;9921;-62
2022/08/01 05:00:51;;;;;;;;;22.00;14.60;;;;;19.66;71.93;99888.25;5115836;28;8860;-62
2022/08/01 05:03:19;;;;;;;;;13.60;13.60;;;;;19.67;72.23;99884.50;5115656;28;8851;-62
2022/08/01 05:05:47;;;;;;;;;19.00;15.00;;;;;19.71;71.45;99889.38;5116379;28;8852;-62
2022/08/01 05:08:16;;;;;;;;;17.20;15.20;;;;;19.70;71.74;99887.69;5115802;28;8970;-62
2022/08/01 05:10:43;;;;;;;;;21.80;18.80;;;;;19.74;71.56;99890.88;5116051;28;8911;-62
2022/08/01 05:13:11;;;;;;;;;12.60;11.80;;;;;19.78;71.26;99890.31;5115865;28;8954;-63
2022/08/01 05:15:39;;;;;;;;;13.40;8.20;;;;;19.82;71.69;99890.81;5116021;28;8824;-63
2022/08/01 05:18:07;;;;;;;;;17.40;13.80;;;;;19.88;71.15;99893.59;5118276;28;8835;-63
2022/08/01 05:20:36;;;;;;;;;16.20;15.20;;;;;19.93;71.56;99890.34;5118526;28;8866;-63
2022/08/01 05:23:04;;;;;;;;;19.20;15.00;;;;;19.95;70.93;99897.25;5118370;28;8844;-63
2022/08/01 05:25:33;;;;;;;;;17.20;15.60;;;;;20.00;71.57;99902.13;5131507;27;8949;-63
2022/08/01 05:28:20;;;;;;;;;14.80;13.00;;;;;20.03;71.02;99894.50;5139139;27;9521;-62
2022/08/01 05:30:48;;;;;;;;;16.20;14.00;;;;;20.06;71.00;99896.88;5140319;27;8854;-62
2022/08/01 05:33:16;;;;;;;;;13.20;11.20;;;;;20.10;71.04;99900.06;5139881;27;8865;-62
2022/08/01 05:35:44;;;;;;;;;15.40;14.80;;;;;20.14;70.89;99909.47;5140005;27;8817;-62
2022/08/01 05:38:15;;;;;;;;;13.00;11.40;;;;;20.16;70.71;99902.84;5140242;27;8830;-62
2022/08/01 05:40:43;;;;;;;;;14.00;13.00;;;;;20.18;70.70;99906.22;5135872;27;8832;-62
2022/08/01 05:43:11;;;;;;;;;20.60;19.40;;;;;20.21;70.67;99911.28;5119377;28;8851;-62
2022/08/01 05:45:38;;;;;;;;;16.00;12.80;;;;;20.23;70.66;99914.63;5118719;28;8904;-63
2022/08/01 05:48:06;;;;;;;;;12.00;11.40;;;;;20.25;71.09;99915.28;5118266;28;8840;-62
2022/08/01 05:50:34;;;;;;;;;14.40;13.20;;;;;20.30;71.01;99914.72;5118634;28;9544;-63
2022/08/01 05:53:02;;;;;;;;;16.00;14.00;;;;;20.36;70.45;99917.53;5118322;28;8820;-63
2022/08/01 05:55:30;;;;;;;;;16.60;16.20;;;;;20.42;70.40;99919.50;5117903;28;8946;-64
2022/08/01 05:57:57;;;;;;;;;15.60;12.80;;;;;20.48;70.39;99921.44;5116597;28;8831;-64
2022/08/01 06:00:25;;;;;;;;;11.00;10.60;;;;;20.51;70.64;99926.50;5115210;28;8858;-63
2022/08/01 06:02:53;;;;;;;;;17.20;13.40;;;;;20.57;70.42;99927.63;5115456;28;8981;-64
2022/08/01 06:05:20;;;;;;;;;7.80;7.80;;;;;20.61;70.09;99929.78;5114757;28;8836;-63
2022/08/01 06:07:48;;;;;;;;;6.80;6.80;;;;;20.64;69.74;99923.16;5114825;28;9041;-63
2022/08/01 06:10:16;;;;;;;;;12.60;11.00;;;;;20.65;69.93;99925.69;5117529;28;8843;-63
2022/08/01 06:12:44;;;;;;;;;12.40;12.00;;;;;20.62;70.65;99925.22;5115563;28;8824;-64
2022/08/01 06:15:11;;;;;;;;;13.60;11.60;;;;;20.61;70.45;99934.34;5115327;28;8840;-64
2022/08/01 06:17:41;;;;;;;;;2.00;1.60;;;;;20.61;70.31;99932.47;5115002;28;9608;-63
2022/08/01 06:20:08;;;;;;;;;11.00;10.00;;;;;20.61;70.32;99937.03;5115975;28;8828;-63
2022/08/01 06:22:36;;;;;;;;;9.00;7.20;;;;;20.63;70.69;99930.41;5115209;28;8908;-63
2022/08/01 06:25:04;;;;;;;;;9.80;7.80;;;;;20.65;70.56;99932.94;5114810;28;8828;-63
2022/08/01 06:27:32;;;;;;;;;5.80;5.80;;;;;20.67;70.08;99931.75;5115992;28;8828;-63
2022/08/01 06:30:00;;;;;;;;;10.60;9.20;;;;;20.71;70.69;99929.50;5117204;28;8856;-63
2022/08/01 06:32:28;;;;;;;;;5.40;5.00;;;;;20.77;70.07;99929.59;5117154;28;8962;-63
2022/08/01 06:34:56;;;;;;;;;8.00;7.00;;;;;20.81;70.23;99939.03;5097192;28;8944;-63
2022/08/01 06:37:25;;;;;;;;;11.00;10.00;;;;;20.82;70.32;99930.69;5097205;28;8849;-63
2022/08/01 06:39:53;;;;;;;;;10.60;8.20;;;;;20.82;70.26;99936.13;5095744;28;8837;-63
2022/08/01 06:42:21;;;;;;;;;3.20;2.40;;;;;20.86;70.08;99928.47;5096075;28;8914;-63
2022/08/01 06:44:49;;;;;;;;;10.40;9.40;;;;;20.95;69.99;99935.50;5095965;28;8876;-63
2022/08/01 06:47:17;;;;;;;;;11.40;10.00;;;;;20.98;70.01;99932.41;5094572;28;8861;-63
2022/08/01 06:49:44;;;;;;;;;15.40;13.40;;;;;21.09;69.61;99932.78;5093856;28;8869;-64
2022/08/01 06:52:12;;;;;;;;;12.40;10.40;;;;;21.19;69.19;99935.19;5093686;28;8892;-63
2022/08/01 06:54:40;;;;;;;;;14.20;12.80;;;;;21.26;68.88;99927.97;5093638;28;8821;-63
2022/08/01 06:57:08;;;;;;;;;12.00;10.20;;;;;21.35;69.15;99929.53;5094952;28;8922;-63
2022/08/01 06:59:36;;;;;;;;;13.40;11.80;;;;;21.45;68.73;99925.50;5093977;28;8903;-63
2022/08/01 07:02:03;;;;;;;;;11.40;9.60;;;;;21.53;68.44;99922.66;5093293;28;8876;-62
2022/08/01 07:04:32;;;;;;;;;9.00;8.20;;;;;21.62;68.20;99926.06;5093827;28;8923;-63
2022/08/01 07:07:00;;;;;;;;;9.60;6.60;;;;;21.67;68.27;99929.09;5095041;28;8868;-63
2022/08/01 07:09:27;;;;;;;;;7.60;7.20;;;;;21.64;68.72;99930.28;5094038;28;8833;-63
2022/08/01 07:11:55;;;;;;;;;6.80;6.00;;;;;21.58;68.63;99933.78;5092702;28;8889;-63
2022/08/01 07:14:23;;;;;;;;;9.00;9.00;;;;;21.55;68.81;99931.44;5093531;28;8834;-63
2022/08/01 07:16:51;;;;;;;;;7.20;7.20;;;;;21.56;68.68;99927.69;5094793;28;8877;-63
2022/08/01 07:19:19;;;;;;;;;8.20;8.20;;;;;21.60;68.41;99926.28;5094592;28;8853;-63
2022/08/01 07:21:47;;;;;;;;;8.60;8.60;;;;;21.67;69.04;99920.97;5095002;28;8931;-63
2022/08/01 07:24:16;;;;;;;;;8.00;8.00;;;;;21.73;68.66;99914.78;5094355;28;9008;-63
2022/08/01 07:26:47;;;;;;;;;8.20;7.20;;;;;21.82;68.59;99921.72;5094538;28;8850;-62
2022/08/01 07:29:20;;;;;;;;;10.80;9.20;;;;;21.92;68.28;99923.09;5095593;28;8903;-63
2022/08/01 07:31:48;;;;;;;;;10.00;7.40;;;;;21.92;67.87;99922.22;5095115;28;8868;-63
2022/08/01 07:34:16;;;;;;;;;14.40;11.60;;;;;21.91;68.02;99926.00;5094476;28;8834;-63
2022/08/01 07:36:44;;;;;;;;;15.80;13.60;;;;;21.89;67.82;99920.78;5095645;28;8926;-62
2022/08/01 07:39:12;;;;;;;;;14.80;12.80;;;;;21.90;68.34;99922.44;5094454;28;8845;-62
2022/08/01 07:41:39;;;;;;;;;9.40;8.00;;;;;21.96;68.10;99927.09;5095769;28;8872;-63
2022/08/01 07:44:27;;;;;;;;;11.60;9.00;;;;;22.02;68.03;99925.47;5096082;28;8860;-62
2022/08/01 07:46:56;;;;;;;;;12.20;11.20;;;;;22.06;68.26;99924.03;5095091;28;8826;-63
2022/08/01 07:49:23;;;;;;;;;12.00;11.00;;;;;22.09;67.73;99929.09;5095761;28;8958;-62
2022/08/01 07:51:51;;;;;;;;;17.80;12.80;;;;;22.14;68.30;99930.16;5095331;28;8837;-62
2022/08/01 07:54:30;;;;;;;;;11.20;10.80;;;;;22.24;67.76;99935.28;5095396;28;8926;-63
2022/08/01 07:57:00;;;;;;;;;11.60;10.80;;;;;22.30;67.69;99923.63;5095541;28;9600;-64
2022/08/01 07:59:28;;;;;;;;;12.80;11.60;;;;;22.32;67.32;99935.13;5095481;28;8838;-63
2022/08/01 08:01:56;;;;;;;;;10.60;10.20;;;;;22.23;67.97;99931.69;5094475;28;8885;-63
2022/08/01 08:04:24;;;;;;;;;9.00;8.80;;;;;22.21;68.09;99938.34;5092693;28;8845;-63
2022/08/01 08:06:53;;;;;;;;;11.00;9.20;;;;;22.19;67.85;99940.44;5091581;28;8930;-63
2022/08/01 08:09:21;;;;;;;;;8.40;8.40;;;;;22.12;68.03;99940.41;5091567;28;8846;-62
2022/08/01 08:11:48;;;;;;;;;12.20;11.80;;;;;22.09;68.21;99945.38;5091729;28;8846;-63
2022/08/01 08:14:16;;;;;;;;;11.60;10.00;;;;;22.02;68.16;99941.75;5092891;28;8826;-63
2022/08/01 08:16:44;;;;;;;;;12.00;9.80;;;;;21.96;68.69;99953.38;5093093;28;8837;-63
2022/08/01 08:19:12;;;;;;;;;12.40;11.00;;;;;21.90;68.35;99952.28;5093776;28;8868;-63
2022/08/01 08:21:40;;;;;;;;;13.20;12.00;;;;;21.86;68.56;99961.00;5092825;28;8899;-63
2022/08/01 08:24:20;;;;;;;;;13.80;12.80;;;;;21.82;69.01;99959.69;5092764;28;8967;-62
2022/08/01 08:26:54;;;;;;;;;12.40;11.60;;;;;21.88;68.86;99956.22;5094158;28;9530;-62
2022/08/01 08:29:22;;;;;;;;;14.00;12.60;;;;;22.05;67.92;99950.34;5093248;28;8822;-63
2022/08/01 08:31:50;;;;;;;;;12.60;12.00;;;;;22.27;67.74;99954.72;5094944;28;8964;-63
2022/08/01 08:34:19;;;;;;;;;9.20;8.80;;;;;22.56;66.83;99956.41;5094531;28;8960;-63
2022/08/01 08:36:48;;;;;;;;;11.80;10.80;;;;;22.85;66.47;99953.50;5093437;28;9227;-63
2022/08/01 08:39:16;;;;;;;;;10.80;9.80;;;;;23.16;65.40;99946.56;5094220;28;8830;-63
2022/08/01 08:41:46;;;;;;;;;9.80;9.00;;;;;23.35;65.42;99945.81;5094144;28;8850;-63
2022/08/01 08:44:16;;;;;;;;;12.60;10.60;;;;;23.43;64.82;99948.34;5094445;28;8845;-63
2022/08/01 08:46:44;;;;;;;;;12.20;11.20;;;;;23.59;64.71;99958.88;5094559;28;8826;-62
2022/08/01 08:49:12;;;;;;;;;14.40;12.80;;;;;23.64;64.86;99961.81;5092624;28;8830;-62
2022/08/01 08:51:40;;;;;;;;;14.00;13.20;;;;;23.62;65.00;99960.34;5093611;28;8935;-62
2022/08/01 08:54:08;;;;;;;;;16.40;15.20;;;;;23.56;65.14;99963.88;5093018;28;8914;-63
2022/08/01 08:56:36;;;;;;;;;12.60;12.00;;;;;23.37;65.57;99970.91;5091308;28;9405;-62
2022/08/01 08:59:04;;;;;;;;;14.60;12.20;;;;;23.19;65.74;99969.78;5092145;28;8842;-62
2022/08/01 09:01:33;;;;;;;;;9.60;9.20;;;;;23.03;66.21;99967.38;5091835;28;8897;-62
2022/08/01 09:04:01;;;;;;;;;10.40;9.40;;;;;22.92;66.47;99968.75;5091788;28;8837;-62
2022/08/01 09:06:29;;;;;;;;;14.40;13.80;;;;;22.88;66.61;99969.38;5091099;28;8838;-62
2022/08/01 09:08:57;;;;;;;;;12.80;10.80;;;;;22.90;66.76;99972.72;5091174;28;8834;-63
2022/08/01 09:11:25;;;;;;;;;12.80;10.80;;;;;23.14;66.13;99966.81;5091958;28;8865;-62
2022/08/01 09:13:53;;;;;;;;;12.80;11.20;;;;;23.44;65.20;99970.97;5092231;28;8865;-63
2022/08/01 09:16:20;;;;;;;;;12.80;11.60;;;;;23.76;64.06;99970.22;5091119;28;8968;-63
2022/08/01 09:18:49;;;;;;;;;12.00;10.20;;;;;23.99;64.40;99970.72;5090679;28;8919;-63
2022/08/01 09:21:21;;;;;;;;;9.40;9.20;;;;;24.18;63.92;99980.78;5092612;28;8969;-62
2022/08/01 09:23:49;;;;;;;;;6.40;6.20;;;;;24.18;63.43;99976.19;5094223;28;8814;-62
2022/08/01 09:26:21;;;;;;;;;13.00;9.80;;;;;24.02;63.95;99975.72;5093346;28;8862;-62
2022/08/01 09:28:50;;;;;;;;;7.20;5.80;;;;;23.76;64.58;99976.47;5093806;28;8876;-63
2022/08/01 09:31:18;;;;;;;;;9.20;8.60;;;;;23.55;64.97;99995.69;5092955;28;8931;-63
2022/08/01 09:33:46;;;;;;;;;8.60;8.60;;;;;23.38;65.32;99985.34;5091737;28;8903;-62
2022/08/01 09:36:17;;;;;;;;;7.60;6.00;;;;;23.25;66.11;99990.72;5090310;28;8857;-62
2022/08/01 09:38:45;;;;;;;;;9.80;9.80;;;;;23.15;66.17;99996.53;5091737;28;8842;-63
2022/08/01 09:41:17;;;;;;;;;9.20;8.40;;;;;23.08;66.29;99992.88;5091135;28;8900;-62
2022/08/01 09:43:45;;;;;;;;;5.80;5.80;;;;;23.09;65.63;100000.03;5089828;28;8830;-62
2022/08/01 09:46:16;;;;;;;;;8.40;7.20;;;;;23.31;65.69;99995.34;5089576;28;8872;-63
2022/08/01 09:48:46;;;;;;;;;7.00;7.00;;;;;23.52;65.23;99998.78;5090603;28;8958;-62
2022/08/01 09:51:15;;;;;;;;;5.60;5.60;;;;;23.89;63.78;99989.34;5090124;28;8931;-62
2022/08/01 09:54:04;;;;;;;;;5.20;5.00;;;;;24.40;63.11;99987.69;5089417;28;8849;-63
2022/08/01 09:56:32;;;;;;;;;6.00;5.60;;;;;24.92;61.43;99984.97;5089783;28;8814;-63
2022/08/01 09:59:00;;;;;;;;;7.00;5.40;;;;;25.38;60.74;99985.69;5089441;28;8834;-63
2022/08/01 10:01:29;;;;;;;;;6.40;6.00;;;;;25.79;59.73;99985.09;5089587;28;8934;-62
2022/08/01 10:04:05;;;;;;;;;5.80;5.80;;;;;26.31;59.02;99986.66;5093645;28;8829;-64
2022/08/01 10:06:38;;;;;;;;;6.00;6.00;;;;;26.89;57.56;99977.97;5095353;28;8833;-62
2022/08/01 10:09:07;;;;;;;;;6.00;6.00;;;;;27.21;56.88;99984.16;5095443;28;8837;-62
2022/08/01 10:11:36;;;;;;;;;6.00;6.00;;;;;26.96;57.55;99984.22;5093902;28;8842;-63
2022/08/01 10:14:05;;;;;;;;;4.40;4.40;;;;;26.82;58.04;99982.69;5095123;28;8880;-62
2022/08/01 10:16:34;;;;;;;;;5.20;5.20;;;;;26.61;58.64;99985.81;5094836;28;8891;-62
2022/08/01 10:19:04;;;;;;;;;5.20;5.20;;;;;26.47;59.30;99984.22;5096097;28;8842;-63
2022/08/01 10:21:37;;;;;;;;;9.40;8.00;;;;;26.12;59.58;99991.19;5095915;28;8822;-63
2022/08/01 10:24:25;;;;;;;;;5.20;5.00;;;;;25.75;61.08;99989.28;5096205;28;8821;-62
2022/08/01 10:26:54;;;;;;;;;4.80;4.80;;;;;25.47;61.30;99990.69;5095468;28;8842;-62
2022/08/01 10:29:22;;;;;;;;;7.00;7.00;;;;;25.27;61.52;99989.09;5094830;28;8838;-62
2022/08/01 10:32:11;;;;;;;;;6.60;6.60;;;;;25.14;61.70;99994.56;5092807;28;8834;-63
2022/08/01 10:34:38;;;;;;;;;5.20;5.20;;;;;25.32;61.01;99989.31;5094176;28;9216;-62
2022/08/01 10:37:11;;;;;;;;;3.80;3.80;;;;;26.05;59.66;99984.94;5093385;28;8841;-62
2022/08/01 10:39:40;;;;;;;;;4.20;4.00;;;;;27.05;57.39;99982.84;5094637;28;9167;-62
2022/08/01 10:42:08;;;;;;;;;3.00;2.40;;;;;28.11;55.04;99982.16;5095904;28;8861;-63
2022/08/01 10:44:42;;;;;;;;;6.40;6.00;;;;;28.79;54.16;99980.63;5094410;28;9608;-62
2022/08/01 10:47:11;;;;;;;;;6.40;6.40;;;;;29.14;53.60;99989.69;5094650;28;8829;-62
2022/08/01 10:49:39;;;;;;;;;7.00;7.00;;;;;29.48;52.50;99976.97;5094067;28;8834;-63
2022/08/01 10:52:06;;;;;;;;;10.00;9.40;;;;;29.87;51.74;99981.69;5094467;28;8922;-63
2022/08/01 10:54:34;;;;;;;;;8.20;8.20;;;;;29.88;52.25;99975.09;5093949;28;8856;-62
2022/08/01 10:57:02;;;;;;;;;8.80;8.00;;;;;29.56;52.80;99980.22;5094417;28;9495;-62
2022/08/01 10:59:35;;;;;;;;;8.00;7.60;;;;;29.25;53.41;99982.53;5095651;28;8822;-63
2022/08/01 11:02:17;;;;;;;;;5.00;5.00;;;;;28.74;54.17;99983.25;5095074;28;9107;-62
2022/08/01 11:04:45;;;;;;;;;4.80;4.80;;;;;28.21;55.90;99973.38;5095141;28;8854;-62
2022/08/01 11:07:15;;;;;;;;;6.60;6.60;;;;;27.96;56.42;99979.03;5096332;28;8864;-62
2022/08/01 11:09:42;;;;;;;;;7.40;5.80;;;;;27.82;56.30;99971.22;5094994;28;8903;-62
2022/08/01 11:12:17;;;;;;;;;7.20;7.00;;;;;27.74;56.73;99972.34;5094700;28;9535;-62
2022/08/01 11:14:51;;;;;;;;;6.20;5.20;;;;;27.86;56.03;99975.97;5094440;28;8826;-63
2022/08/01 11:17:22;;;;;;;;;4.00;4.00;;;;;27.91;56.22;99967.09;5096037;28;8850;-62
2022/08/01 11:19:50;;;;;;;;;7.40;7.00;;;;;28.49;54.27;99971.66;5095864;28;8830;-63
2022/08/01 11:22:22;;;;;;;;;4.80;4.80;;;;;29.58;52.36;99975.31;5094265;28;8853;-62
2022/08/01 11:24:56;;;;;;;;;3.00;3.00;;;;;30.40;50.47;99966.47;5093186;28;8842;-62
2022/08/01 11:27:24;;;;;;;;;3.00;3.00;;;;;30.22;50.88;99979.59;5093750;28;8838;-63
2022/08/01 11:29:52;;;;;;;;;3.00;3.00;;;;;29.32;52.81;99984.06;5094620;28;8850;-63
2022/08/01 11:32:20;;;;;;;;;3.60;2.80;;;;;28.33;55.01;99988.78;5091984;28;8976;-62
2022/08/01 11:34:48;;;;;;;;;1.60;1.60;;;;;27.56;56.85;99997.00;5091891;28;8865;-62
2022/08/01 11:37:16;;;;;;;;;1.80;1.80;;;;;27.05;57.86;99985.59;5091904;28;8833;-62
2022/08/01 11:39:44;;;;;;;;;2.20;2.00;;;;;27.19;57.44;99994.50;5092747;28;8825;-62